sensor_id;sensor_type;location;lat;lon;timestamp;pressure;altitude;pressure_sealevel;temperature;humidity
36454;BME280;22478;51.740;-1.314;2023-05-08T00:01:40;100714.63;;;11.32;99.71
36454;BME280;22478;51.740;-1.314;2023-05-08T00:04:07;100709.55;;;11.89;96.42
36454;BME280;22478;51.740;-1.314;2023-05-08T00:06:34;100711.90;;;11.69;98.43
36454;BME280;22478;51.740;-1.314;2023-05-08T00:09:02;100711.00;;;11.79;97.87
36454;BME280;22478;51.740;-1.314;2023-05-08T00:11:29;100710.62;;;11.71;97.69
36454;BME280;22478;51.740;-1.314;2023-05-08T00:13:56;100713.63;;;11.47;98.65
36454;BME280;22478;51.740;-1.314;2023-05-08T00:16:24;100712.16;;;11.23;100.00
36454;BME280;22478;51.740;-1.314;2023-05-08T00:18:51;100713.80;;;11.29;99.18
36454;BME280;22478;51.740;-1.314;2023-05-08T00:21:18;100707.18;;;11.69;97.55
36454;BME280;22478;51.740;-1.314;2023-05-08T00:23:45;100712.12;;;11.50;100.00
36454;BME280;22478;51.740;-1.314;2023-05-08T00:26:12;100719.19;;;11.13;100.00
36454;BME280;22478;51.740;-1.314;2023-05-08T00:28:40;100717.54;;;11.56;100.00
36454;BME280;22478;51.740;-1.314;2023-05-08T00:31:07;100714.82;;;11.35;96.66
36454;BME280;22478;51.740;-1.314;2023-05-08T00:33:35;100713.04;;;12.50;97.53
36454;BME280;22478;51.740;-1.314;2023-05-08T00:36:03;100711.30;;;11.98;98.99
36454;BME280;22478;51.740;-1.314;2023-05-08T00:38:31;100705.91;;;11.40;98.99
36454;BME280;22478;51.740;-1.314;2023-05-08T00:40:58;100703.38;;;11.40;98.16
36454;BME280;22478;51.740;-1.314;2023-05-08T00:43:26;100697.76;;;11.86;94.00
36454;BME280;22478;51.740;-1.314;2023-05-08T00:45:54;100700.02;;;10.76;100.00
36454;BME280;22478;51.740;-1.314;2023-05-08T00:48:22;100688.04;;;12.48;94.55
36454;BME280;22478;51.740;-1.314;2023-05-08T00:50:51;100690.41;;;11.78;97.73
36454;BME280;22478;51.740;-1.314;2023-05-08T00:53:20;100688.35;;;12.02;96.36
36454;BME280;22478;51.740;-1.314;2023-05-08T00:55:48;100684.90;;;12.01;97.45
36454;BME280;22478;51.740;-1.314;2023-05-08T00:58:16;100680.54;;;11.53;96.90
36454;BME280;22478;51.740;-1.314;2023-05-08T01:00:45;100678.47;;;10.91;100.00
36454;BME280;22478;51.740;-1.314;2023-05-08T01:03:12;100673.88;;;10.90;98.43
36454;BME280;22478;51.740;-1.314;2023-05-08T01:05:40;100673.88;;;11.64;98.81
36454;BME280;22478;51.740;-1.314;2023-05-08T01:08:07;100676.83;;;10.27;98.87
36454;BME280;22478;51.740;-1.314;2023-05-08T01:10:43;100676.97;;;10.97;98.50
36454;BME280;22478;51.740;-1.314;2023-05-08T01:13:17;100671.66;;;11.98;97.80
36454;BME280;22478;51.740;-1.314;2023-05-08T01:15:50;100673.99;;;11.50;98.19
36454;BME280;22478;51.740;-1.314;2023-05-08T01:18:24;100677.35;;;10.43;100.00
36454;BME280;22478;51.740;-1.314;2023-05-08T01:21:01;100675.84;;;11.14;99.13
36454;BME280;22478;51.740;-1.314;2023-05-08T01:24:17;100672.38;;;11.61;98.89
36454;BME280;22478;51.740;-1.314;2023-05-08T01:27:15;100667.10;;;11.94;97.84
36454;BME280;22478;51.740;-1.314;2023-05-08T01:30:03;100665.57;;;10.77;100.00
36454;BME280;22478;51.740;-1.314;2023-05-08T01:32:35;100661.43;;;11.57;98.52
36454;BME280;22478;51.740;-1.314;2023-05-08T01:35:11;100659.60;;;11.48;95.85
36454;BME280;22478;51.740;-1.314;2023-05-08T01:37:47;100666.10;;;11.43;100.00
36454;BME280;22478;51.740;-1.314;2023-05-08T01:40:23;100662.92;;;11.38;100.00
36454;BME280;22478;51.740;-1.314;2023-05-08T01:42:57;100661.53;;;11.40;99.77
36454;BME280;22478;51.740;-1.314;2023-05-08T01:45:33;100659.10;;;11.21;100.00
36454;BME280;22478;51.740;-1.314;2023-05-08T01:48:03;100657.45;;;11.21;100.00
36454;BME280;22478;51.740;-1.314;2023-05-08T01:50:34;100657.10;;;10.52;100.00
36454;BME280;22478;51.740;-1.314;2023-05-08T01:53:06;100662.18;;;10.96;100.00
36454;BME280;22478;51.740;-1.314;2023-05-08T01:55:36;100660.59;;;10.74;100.00
36454;BME280;22478;51.740;-1.314;2023-05-08T01:58:08;100663.17;;;9.71;100.00
36454;BME280;22478;51.740;-1.314;2023-05-08T02:00:38;100663.01;;;9.66;100.00
36454;BME280;22478;51.740;-1.314;2023-05-08T02:03:08;100659.37;;;8.68;100.00
36454;BME280;22478;51.740;-1.314;2023-05-08T02:05:37;100657.88;;;10.80;100.00
36454;BME280;22478;51.740;-1.314;2023-05-08T02:08:07;100652.83;;;9.96;100.00
36454;BME280;22478;51.740;-1.314;2023-05-08T02:10:36;100653.04;;;9.01;100.00
36454;BME280;22478;51.740;-1.314;2023-05-08T02:13:05;100650.17;;;9.67;100.00
36454;BME280;22478;51.740;-1.314;2023-05-08T02:15:34;100650.31;;;10.37;100.00
36454;BME280;22478;51.740;-1.314;2023-05-08T02:18:03;100650.19;;;10.04;100.00
36454;BME280;22478;51.740;-1.314;2023-05-08T02:20:32;100648.21;;;9.52;100.00
36454;BME280;22478;51.740;-1.314;2023-05-08T02:22:59;100643.09;;;9.95;100.00
36454;BME280;22478;51.740;-1.314;2023-05-08T02:25:29;100643.76;;;9.88;100.00
36454;BME280;22478;51.740;-1.314;2023-05-08T02:27:57;100639.47;;;11.19;100.00
36454;BME280;22478;51.740;-1.314;2023-05-08T02:30:25;100641.26;;;9.88;100.00
36454;BME280;22478;51.740;-1.314;2023-05-08T02:32:55;100639.07;;;10.71;100.00
36454;BME280;22478;51.740;-1.314;2023-05-08T02:35:23;100638.87;;;10.59;100.00
36454;BME280;22478;51.740;-1.314;2023-05-08T02:37:54;100637.66;;;10.27;100.00
36454;BME280;22478;51.740;-1.314;2023-05-08T02:40:22;100637.63;;;10.57;100.00
36454;BME280;22478;51.740;-1.314;2023-05-08T02:42:50;100636.97;;;10.41;100.00
36454;BME280;22478;51.740;-1.314;2023-05-08T02:45:18;100634.10;;;10.89;100.00
36454;BME280;22478;51.740;-1.314;2023-05-08T02:47:50;100635.22;;;9.52;100.00
36454;BME280;22478;51.740;-1.314;2023-05-08T02:50:22;100632.85;;;10.10;100.00
36454;BME280;22478;51.740;-1.314;2023-05-08T02:53:01;100628.02;;;10.16;100.00
36454;BME280;22478;51.740;-1.314;2023-05-08T02:55:36;100624.05;;;9.59;100.00
36454;BME280;22478;51.740;-1.314;2023-05-08T02:58:12;100626.54;;;9.81;100.00
36454;BME280;22478;51.740;-1.314;2023-05-08T03:00:46;100623.38;;;9.29;100.00
36454;BME280;22478;51.740;-1.314;2023-05-08T03:03:20;100623.66;;;9.22;100.00
36454;BME280;22478;51.740;-1.314;2023-05-08T03:05:52;100621.66;;;9.22;100.00
36454;BME280;22478;51.740;-1.314;2023-05-08T03:08:24;100619.86;;;10.09;100.00
36454;BME280;22478;51.740;-1.314;2023-05-08T03:10:58;100621.80;;;8.89;100.00
36454;BME280;22478;51.740;-1.314;2023-05-08T03:13:28;100623.30;;;8.89;100.00
36454;BME280;22478;51.740;-1.314;2023-05-08T03:15:59;100621.34;;;9.20;100.00
36454;BME280;22478;51.740;-1.314;2023-05-08T03:18:31;100624.47;;;8.31;100.00
36454;BME280;22478;51.740;-1.314;2023-05-08T03:21:01;100622.17;;;9.34;100.00
36454;BME280;22478;51.740;-1.314;2023-05-08T03:23:29;100620.89;;;8.56;100.00
36454;BME280;22478;51.740;-1.314;2023-05-08T03:26:00;100619.40;;;8.53;100.00
36454;BME280;22478;51.740;-1.314;2023-05-08T03:28:30;100618.97;;;7.90;100.00
36454;BME280;22478;51.740;-1.314;2023-05-08T03:30:58;100615.86;;;9.13;100.00
36454;BME280;22478;51.740;-1.314;2023-05-08T03:33:27;100610.02;;;8.07;100.00
36454;BME280;22478;51.740;-1.314;2023-05-08T03:35:55;100613.17;;;7.81;100.00
36454;BME280;22478;51.740;-1.314;2023-05-08T03:38:23;100610.22;;;7.73;100.00
36454;BME280;22478;51.740;-1.314;2023-05-08T03:40:52;100611.10;;;8.02;100.00
36454;BME280;22478;51.740;-1.314;2023-05-08T03:43:19;100611.76;;;7.79;100.00
36454;BME280;22478;51.740;-1.314;2023-05-08T03:45:47;100611.95;;;8.27;100.00
36454;BME280;22478;51.740;-1.314;2023-05-08T03:48:16;100605.22;;;9.37;100.00
36454;BME280;22478;51.740;-1.314;2023-05-08T03:50:44;100610.62;;;8.29;100.00
36454;BME280;22478;51.740;-1.314;2023-05-08T03:53:12;100606.18;;;8.24;100.00
36454;BME280;22478;51.740;-1.314;2023-05-08T03:55:40;100605.22;;;9.15;100.00
36454;BME280;22478;51.740;-1.314;2023-05-08T03:58:13;100603.79;;;8.38;100.00
36454;BME280;22478;51.740;-1.314;2023-05-08T04:00:53;100602.51;;;7.75;100.00
36454;BME280;22478;51.740;-1.314;2023-05-08T04:03:31;100601.18;;;8.06;100.00
36454;BME280;22478;51.740;-1.314;2023-05-08T04:06:08;100597.61;;;8.66;100.00
36454;BME280;22478;51.740;-1.314;2023-05-08T04:08:41;100597.95;;;8.54;100.00
36454;BME280;22478;51.740;-1.314;2023-05-08T04:11:17;100598.21;;;7.72;100.00
36454;BME280;22478;51.740;-1.314;2023-05-08T04:13:48;100600.14;;;8.85;100.00
36454;BME280;22478;51.740;-1.314;2023-05-08T04:16:21;100597.92;;;9.16;100.00
36454;BME280;22478;51.740;-1.314;2023-05-08T04:18:49;100597.47;;;8.23;100.00
36454;BME280;22478;51.740;-1.314;2023-05-08T04:21:23;100597.25;;;7.44;100.00
36454;BME280;22478;51.740;-1.314;2023-05-08T04:23:52;100596.67;;;8.12;100.00
36454;BME280;22478;51.740;-1.314;2023-05-08T04:26:21;100594.48;;;8.14;100.00
36454;BME280;22478;51.740;-1.314;2023-05-08T04:28:49;100598.02;;;7.11;100.00
36454;BME280;22478;51.740;-1.314;2023-05-08T04:31:18;100597.03;;;8.48;100.00
36454;BME280;22478;51.740;-1.314;2023-05-08T04:33:46;100599.20;;;8.41;100.00
36454;BME280;22478;51.740;-1.314;2023-05-08T04:36:13;100600.74;;;7.94;100.00
36454;BME280;22478;51.740;-1.314;2023-05-08T04:38:40;100599.42;;;9.54;100.00
36454;BME280;22478;51.740;-1.314;2023-05-08T04:41:08;100608.27;;;7.69;100.00
36454;BME280;22478;51.740;-1.314;2023-05-08T04:43:35;100606.96;;;7.69;100.00
36454;BME280;22478;51.740;-1.314;2023-05-08T04:46:04;100609.28;;;7.82;100.00
36454;BME280;22478;51.740;-1.314;2023-05-08T04:48:31;100606.15;;;9.37;100.00
36454;BME280;22478;51.740;-1.314;2023-05-08T04:50:58;100607.26;;;9.83;100.00
36454;BME280;22478;51.740;-1.314;2023-05-08T04:53:25;100609.03;;;7.57;100.00
36454;BME280;22478;51.740;-1.314;2023-05-08T04:55:52;100607.89;;;8.28;100.00
36454;BME280;22478;51.740;-1.314;2023-05-08T04:58:19;100606.60;;;8.05;100.00
36454;BME280;22478;51.740;-1.314;2023-05-08T05:00:47;100609.84;;;7.69;100.00
36454;BME280;22478;51.740;-1.314;2023-05-08T05:03:14;100610.54;;;8.19;100.00
36454;BME280;22478;51.740;-1.314;2023-05-08T05:05:41;100614.95;;;8.96;100.00
36454;BME280;22478;51.740;-1.314;2023-05-08T05:08:08;100622.61;;;6.23;100.00
36454;BME280;22478;51.740;-1.314;2023-05-08T05:10:37;100618.88;;;7.74;100.00
36454;BME280;22478;51.740;-1.314;2023-05-08T05:13:04;100618.90;;;6.75;100.00
36454;BME280;22478;51.740;-1.314;2023-05-08T05:15:30;100619.38;;;8.58;100.00
36454;BME280;22478;51.740;-1.314;2023-05-08T05:17:57;100618.20;;;8.69;100.00
36454;BME280;22478;51.740;-1.314;2023-05-08T05:20:25;100622.79;;;7.21;100.00
36454;BME280;22478;51.740;-1.314;2023-05-08T05:22:52;100624.18;;;7.04;100.00
36454;BME280;22478;51.740;-1.314;2023-05-08T05:25:19;100624.03;;;8.07;100.00
36454;BME280;22478;51.740;-1.314;2023-05-08T05:27:47;100626.11;;;7.94;100.00
36454;BME280;22478;51.740;-1.314;2023-05-08T05:30:14;100627.28;;;7.42;100.00
36454;BME280;22478;51.740;-1.314;2023-05-08T05:32:41;100627.87;;;8.46;100.00
36454;BME280;22478;51.740;-1.314;2023-05-08T05:35:09;100628.86;;;8.65;100.00
36454;BME280;22478;51.740;-1.314;2023-05-08T05:37:37;100627.43;;;9.38;100.00
36454;BME280;22478;51.740;-1.314;2023-05-08T05:40:05;100642.82;;;5.89;100.00
36454;BME280;22478;51.740;-1.314;2023-05-08T05:42:33;100639.27;;;7.20;100.00
36454;BME280;22478;51.740;-1.314;2023-05-08T05:45:00;100642.56;;;6.79;100.00
36454;BME280;22478;51.740;-1.314;2023-05-08T05:47:27;100643.63;;;7.49;100.00
36454;BME280;22478;51.740;-1.314;2023-05-08T05:49:54;100642.41;;;7.64;100.00
36454;BME280;22478;51.740;-1.314;2023-05-08T05:52:22;100648.24;;;6.50;100.00
36454;BME280;22478;51.740;-1.314;2023-05-08T05:54:49;100650.77;;;7.33;100.00
36454;BME280;22478;51.740;-1.314;2023-05-08T05:57:16;100645.88;;;7.61;100.00
36454;BME280;22478;51.740;-1.314;2023-05-08T05:59:44;100641.85;;;7.81;100.00
36454;BME280;22478;51.740;-1.314;2023-05-08T06:02:11;100639.03;;;9.04;100.00
36454;BME280;22478;51.740;-1.314;2023-05-08T06:04:39;100640.27;;;8.49;100.00
36454;BME280;22478;51.740;-1.314;2023-05-08T06:07:06;100639.86;;;8.28;100.00
36454;BME280;22478;51.740;-1.314;2023-05-08T06:09:34;100643.63;;;7.09;100.00
36454;BME280;22478;51.740;-1.314;2023-05-08T06:12:01;100638.36;;;8.56;100.00
36454;BME280;22478;51.740;-1.314;2023-05-08T06:14:28;100638.82;;;7.82;100.00
36454;BME280;22478;51.740;-1.314;2023-05-08T06:16:55;100637.89;;;8.19;100.00
36454;BME280;22478;51.740;-1.314;2023-05-08T06:19:23;100637.90;;;7.69;100.00
36454;BME280;22478;51.740;-1.314;2023-05-08T06:21:50;100634.57;;;7.63;100.00
36454;BME280;22478;51.740;-1.314;2023-05-08T06:24:17;100635.42;;;7.90;100.00
36454;BME280;22478;51.740;-1.314;2023-05-08T06:26:45;100636.37;;;7.35;100.00
36454;BME280;22478;51.740;-1.314;2023-05-08T06:29:12;100639.72;;;8.30;100.00
36454;BME280;22478;51.740;-1.314;2023-05-08T06:31:39;100636.08;;;8.61;100.00
36454;BME280;22478;51.740;-1.314;2023-05-08T06:34:06;100635.84;;;8.49;100.00
36454;BME280;22478;51.740;-1.314;2023-05-08T06:36:33;100636.83;;;8.96;100.00
36454;BME280;22478;51.740;-1.314;2023-05-08T06:39:03;100639.71;;;8.07;100.00
36454;BME280;22478;51.740;-1.314;2023-05-08T06:41:31;100634.22;;;9.40;100.00
36454;BME280;22478;51.740;-1.314;2023-05-08T06:43:57;100630.58;;;9.83;100.00
36454;BME280;22478;51.740;-1.314;2023-05-08T06:46:24;100632.08;;;9.84;100.00
36454;BME280;22478;51.740;-1.314;2023-05-08T06:48:51;100635.19;;;9.13;100.00
36454;BME280;22478;51.740;-1.314;2023-05-08T06:51:19;100639.88;;;8.76;100.00
36454;BME280;22478;51.740;-1.314;2023-05-08T06:53:47;100642.57;;;6.87;100.00
36454;BME280;22478;51.740;-1.314;2023-05-08T06:56:14;100636.65;;;9.46;100.00
36454;BME280;22478;51.740;-1.314;2023-05-08T06:58:42;100634.02;;;9.08;100.00
36454;BME280;22478;51.740;-1.314;2023-05-08T07:01:09;100634.05;;;9.41;100.00
36454;BME280;22478;51.740;-1.314;2023-05-08T07:03:36;100632.67;;;9.49;100.00
36454;BME280;22478;51.740;-1.314;2023-05-08T07:06:05;100628.67;;;10.17;100.00
36454;BME280;22478;51.740;-1.314;2023-05-08T07:08:32;100629.58;;;8.96;100.00
36454;BME280;22478;51.740;-1.314;2023-05-08T07:10:59;100627.43;;;10.15;100.00
36454;BME280;22478;51.740;-1.314;2023-05-08T07:13:27;100628.57;;;8.93;100.00
36454;BME280;22478;51.740;-1.314;2023-05-08T07:15:54;100626.07;;;9.17;100.00
36454;BME280;22478;51.740;-1.314;2023-05-08T07:18:21;100627.72;;;8.86;100.00
36454;BME280;22478;51.740;-1.314;2023-05-08T07:20:49;100628.30;;;9.04;100.00
36454;BME280;22478;51.740;-1.314;2023-05-08T07:23:16;100628.24;;;9.77;100.00
36454;BME280;22478;51.740;-1.314;2023-05-08T07:25:43;100628.19;;;11.01;100.00
36454;BME280;22478;51.740;-1.314;2023-05-08T07:28:11;100630.21;;;9.19;100.00
36454;BME280;22478;51.740;-1.314;2023-05-08T07:30:38;100629.45;;;10.34;100.00
36454;BME280;22478;51.740;-1.314;2023-05-08T07:33:06;100628.77;;;9.59;100.00
36454;BME280;22478;51.740;-1.314;2023-05-08T07:35:34;100621.35;;;10.69;100.00
36454;BME280;22478;51.740;-1.314;2023-05-08T07:38:01;100622.97;;;9.76;100.00
36454;BME280;22478;51.740;-1.314;2023-05-08T07:40:28;100623.88;;;8.69;100.00
36454;BME280;22478;51.740;-1.314;2023-05-08T07:42:55;100627.99;;;8.82;100.00
36454;BME280;22478;51.740;-1.314;2023-05-08T07:45:23;100631.40;;;9.52;100.00
36454;BME280;22478;51.740;-1.314;2023-05-08T07:47:51;100629.22;;;9.28;100.00
36454;BME280;22478;51.740;-1.314;2023-05-08T07:50:19;100630.39;;;9.02;100.00
36454;BME280;22478;51.740;-1.314;2023-05-08T07:52:47;100629.67;;;9.41;100.00
36454;BME280;22478;51.740;-1.314;2023-05-08T07:55:15;100626.49;;;8.63;100.00
36454;BME280;22478;51.740;-1.314;2023-05-08T07:57:43;100628.33;;;9.07;100.00
36454;BME280;22478;51.740;-1.314;2023-05-08T08:00:13;100629.71;;;9.62;100.00
36454;BME280;22478;51.740;-1.314;2023-05-08T08:02:42;100635.22;;;7.89;100.00
36454;BME280;22478;51.740;-1.314;2023-05-08T08:05:09;100631.52;;;9.99;100.00
36454;BME280;22478;51.740;-1.314;2023-05-08T08:07:37;100637.04;;;7.30;100.00
36454;BME280;22478;51.740;-1.314;2023-05-08T08:10:06;100634.08;;;8.19;100.00
36454;BME280;22478;51.740;-1.314;2023-05-08T08:12:34;100629.94;;;7.73;100.00
36454;BME280;22478;51.740;-1.314;2023-05-08T08:15:02;100630.26;;;10.06;100.00
36454;BME280;22478;51.740;-1.314;2023-05-08T08:17:29;100628.89;;;9.15;100.00
36454;BME280;22478;51.740;-1.314;2023-05-08T08:19:56;100628.41;;;9.50;100.00
36454;BME280;22478;51.740;-1.314;2023-05-08T08:22:24;100630.55;;;9.68;100.00
36454;BME280;22478;51.740;-1.314;2023-05-08T08:24:54;100623.10;;;10.40;100.00
36454;BME280;22478;51.740;-1.314;2023-05-08T08:27:21;100624.90;;;7.98;100.00
36454;BME280;22478;51.740;-1.314;2023-05-08T08:29:49;100623.12;;;9.50;100.00
36454;BME280;22478;51.740;-1.314;2023-05-08T08:32:16;100622.01;;;9.51;100.00
36454;BME280;22478;51.740;-1.314;2023-05-08T08:34:43;100623.48;;;10.03;100.00
36454;BME280;22478;51.740;-1.314;2023-05-08T08:37:10;100622.31;;;8.81;100.00
36454;BME280;22478;51.740;-1.314;2023-05-08T08:39:37;100619.72;;;9.95;100.00
36454;BME280;22478;51.740;-1.314;2023-05-08T08:42:04;100620.02;;;9.44;100.00
36454;BME280;22478;51.740;-1.314;2023-05-08T08:44:32;100617.23;;;9.86;100.00
36454;BME280;22478;51.740;-1.314;2023-05-08T08:47:00;100617.86;;;9.94;100.00
36454;BME280;22478;51.740;-1.314;2023-05-08T08:49:30;100616.86;;;9.96;100.00
36454;BME280;22478;51.740;-1.314;2023-05-08T08:52:02;100617.89;;;9.61;100.00
36454;BME280;22478;51.740;-1.314;2023-05-08T08:54:33;100615.66;;;10.01;100.00
36454;BME280;22478;51.740;-1.314;2023-05-08T08:57:04;100610.82;;;11.09;100.00
36454;BME280;22478;51.740;-1.314;2023-05-08T08:59:32;100611.56;;;9.77;100.00
36454;BME280;22478;51.740;-1.314;2023-05-08T09:02:04;100614.43;;;10.90;100.00
36454;BME280;22478;51.740;-1.314;2023-05-08T09:04:31;100611.17;;;10.00;100.00
36454;BME280;22478;51.740;-1.314;2023-05-08T09:06:59;100613.10;;;9.83;100.00
36454;BME280;22478;51.740;-1.314;2023-05-08T09:09:26;100608.01;;;8.70;100.00
36454;BME280;22478;51.740;-1.314;2023-05-08T09:11:54;100612.18;;;8.09;100.00
36454;BME280;22478;51.740;-1.314;2023-05-08T09:14:21;100610.31;;;10.27;100.00
36454;BME280;22478;51.740;-1.314;2023-05-08T09:16:48;100608.99;;;10.65;100.00
36454;BME280;22478;51.740;-1.314;2023-05-08T09:19:15;100603.96;;;9.91;100.00
36454;BME280;22478;51.740;-1.314;2023-05-08T09:21:43;100604.67;;;9.07;100.00
36454;BME280;22478;51.740;-1.314;2023-05-08T09:24:10;100602.45;;;8.14;100.00
36454;BME280;22478;51.740;-1.314;2023-05-08T09:26:39;100600.66;;;8.97;100.00
36454;BME280;22478;51.740;-1.314;2023-05-08T09:29:08;100601.05;;;8.56;100.00
36454;BME280;22478;51.740;-1.314;2023-05-08T09:31:38;100598.75;;;8.81;100.00
36454;BME280;22478;51.740;-1.314;2023-05-08T09:34:06;100596.88;;;9.32;100.00
36454;BME280;22478;51.740;-1.314;2023-05-08T09:36:34;100590.54;;;9.52;100.00
36454;BME280;22478;51.740;-1.314;2023-05-08T09:39:02;100590.63;;;8.68;100.00
36454;BME280;22478;51.740;-1.314;2023-05-08T09:41:29;100584.26;;;9.76;100.00
36454;BME280;22478;51.740;-1.314;2023-05-08T09:44:02;100582.30;;;8.29;100.00
36454;BME280;22478;51.740;-1.314;2023-05-08T09:46:31;100574.36;;;9.27;100.00
36454;BME280;22478;51.740;-1.314;2023-05-08T09:49:01;100559.48;;;9.88;100.00
36454;BME280;22478;51.740;-1.314;2023-05-08T09:51:31;100553.60;;;8.89;100.00
36454;BME280;22478;51.740;-1.314;2023-05-08T09:53:59;100549.65;;;9.83;100.00
36454;BME280;22478;51.740;-1.314;2023-05-08T09:56:32;100549.16;;;10.37;100.00
36454;BME280;22478;51.740;-1.314;2023-05-08T09:59:01;100554.47;;;9.68;100.00
36454;BME280;22478;51.740;-1.314;2023-05-08T10:01:30;100554.40;;;10.16;100.00
36454;BME280;22478;51.740;-1.314;2023-05-08T10:03:58;100548.77;;;9.44;100.00
36454;BME280;22478;51.740;-1.314;2023-05-08T10:06:27;100550.80;;;8.51;100.00
36454;BME280;22478;51.740;-1.314;2023-05-08T10:09:12;100550.72;;;9.74;100.00
36454;BME280;22478;51.740;-1.314;2023-05-08T10:11:40;100555.40;;;9.82;100.00
36454;BME280;22478;51.740;-1.314;2023-05-08T10:14:08;100555.09;;;9.60;100.00
36454;BME280;22478;51.740;-1.314;2023-05-08T10:16:40;100552.74;;;9.46;100.00
36454;BME280;22478;51.740;-1.314;2023-05-08T10:19:12;100562.13;;;8.80;100.00
36454;BME280;22478;51.740;-1.314;2023-05-08T10:21:43;100570.50;;;8.45;100.00
36454;BME280;22478;51.740;-1.314;2023-05-08T10:24:14;100567.45;;;7.32;100.00
36454;BME280;22478;51.740;-1.314;2023-05-08T10:26:47;100563.97;;;10.29;100.00
36454;BME280;22478;51.740;-1.314;2023-05-08T10:29:18;100563.67;;;9.62;100.00
36454;BME280;22478;51.740;-1.314;2023-05-08T10:31:49;100558.35;;;8.69;100.00
36454;BME280;22478;51.740;-1.314;2023-05-08T10:34:21;100559.56;;;8.50;100.00
36454;BME280;22478;51.740;-1.314;2023-05-08T10:36:49;100556.44;;;9.29;100.00
36454;BME280;22478;51.740;-1.314;2023-05-08T10:39:17;100559.45;;;9.29;100.00
36454;BME280;22478;51.740;-1.314;2023-05-08T10:41:46;100571.53;;;9.90;100.00
36454;BME280;22478;51.740;-1.314;2023-05-08T10:44:14;100567.89;;;11.44;100.00
36454;BME280;22478;51.740;-1.314;2023-05-08T10:46:48;100576.25;;;10.05;100.00
36454;BME280;22478;51.740;-1.314;2023-05-08T10:49:24;100579.98;;;10.59;100.00
36454;BME280;22478;51.740;-1.314;2023-05-08T10:52:08;100583.38;;;10.93;100.00
36454;BME280;22478;51.740;-1.314;2023-05-08T10:54:47;100575.39;;;10.86;100.00
36454;BME280;22478;51.740;-1.314;2023-05-08T10:57:15;100568.27;;;9.35;100.00
36454;BME280;22478;51.740;-1.314;2023-05-08T10:59:44;100562.79;;;10.00;100.00
36454;BME280;22478;51.740;-1.314;2023-05-08T11:02:12;100553.44;;;9.26;100.00
36454;BME280;22478;51.740;-1.314;2023-05-08T11:04:40;100551.04;;;10.17;100.00
36454;BME280;22478;51.740;-1.314;2023-05-08T11:07:07;100559.61;;;8.50;100.00
36454;BME280;22478;51.740;-1.314;2023-05-08T11:09:50;100559.23;;;9.93;100.00
36454;BME280;22478;51.740;-1.314;2023-05-08T11:12:21;100557.62;;;7.84;100.00
36454;BME280;22478;51.740;-1.314;2023-05-08T11:14:56;100561.74;;;10.26;100.00
36454;BME280;22478;51.740;-1.314;2023-05-08T11:17:26;100574.83;;;7.66;100.00
36454;BME280;22478;51.740;-1.314;2023-05-08T11:19:56;100571.45;;;7.75;100.00
36454;BME280;22478;51.740;-1.314;2023-05-08T11:22:26;100579.44;;;9.15;100.00
36454;BME280;22478;51.740;-1.314;2023-05-08T11:24:59;100576.71;;;9.80;100.00
36454;BME280;22478;51.740;-1.314;2023-05-08T11:28:08;100563.84;;;7.73;100.00
36454;BME280;22478;51.740;-1.314;2023-05-08T11:30:37;100536.90;;;10.49;100.00
36454;BME280;22478;51.740;-1.314;2023-05-08T11:33:14;100534.09;;;10.87;100.00
36454;BME280;22478;51.740;-1.314;2023-05-08T11:35:46;100542.69;;;9.50;100.00
36454;BME280;22478;51.740;-1.314;2023-05-08T11:38:16;100525.48;;;10.35;100.00
36454;BME280;22478;51.740;-1.314;2023-05-08T11:40:45;100531.30;;;9.98;100.00
36454;BME280;22478;51.740;-1.314;2023-05-08T11:44:18;100536.10;;;9.68;100.00
36454;BME280;22478;51.740;-1.314;2023-05-08T11:46:49;100534.86;;;10.05;100.00
36454;BME280;22478;51.740;-1.314;2023-05-08T11:49:19;100531.42;;;10.54;100.00
36454;BME280;22478;51.740;-1.314;2023-05-08T11:51:49;100520.46;;;10.66;100.00
36454;BME280;22478;51.740;-1.314;2023-05-08T11:54:18;100523.12;;;9.44;100.00
36454;BME280;22478;51.740;-1.314;2023-05-08T11:56:46;100510.33;;;11.48;100.00
36454;BME280;22478;51.740;-1.314;2023-05-08T11:59:14;100522.40;;;11.49;100.00
36454;BME280;22478;51.740;-1.314;2023-05-08T12:01:41;100534.48;;;10.00;100.00
36454;BME280;22478;51.740;-1.314;2023-05-08T12:04:10;100524.41;;;11.64;100.00
36454;BME280;22478;51.740;-1.314;2023-05-08T12:06:39;100525.76;;;10.20;100.00
36454;BME280;22478;51.740;-1.314;2023-05-08T12:09:11;100511.28;;;11.25;100.00
36454;BME280;22478;51.740;-1.314;2023-05-08T12:11:38;100510.34;;;11.93;100.00
36454;BME280;22478;51.740;-1.314;2023-05-08T12:14:06;100515.36;;;11.06;100.00
36454;BME280;22478;51.740;-1.314;2023-05-08T12:16:35;100506.75;;;11.33;100.00
36454;BME280;22478;51.740;-1.314;2023-05-08T12:19:04;100515.52;;;10.39;100.00
36454;BME280;22478;51.740;-1.314;2023-05-08T12:21:31;100511.98;;;9.29;100.00
36454;BME280;22478;51.740;-1.314;2023-05-08T12:23:59;100505.52;;;11.72;100.00
36454;BME280;22478;51.740;-1.314;2023-05-08T12:26:26;100507.49;;;10.79;100.00
36454;BME280;22478;51.740;-1.314;2023-05-08T12:28:54;100519.15;;;9.69;100.00
36454;BME280;22478;51.740;-1.314;2023-05-08T12:31:22;100513.64;;;9.89;100.00
36454;BME280;22478;51.740;-1.314;2023-05-08T12:33:49;100495.24;;;11.76;100.00
36454;BME280;22478;51.740;-1.314;2023-05-08T12:36:16;100502.05;;;11.09;100.00
36454;BME280;22478;51.740;-1.314;2023-05-08T12:38:44;100510.26;;;10.42;100.00
36454;BME280;22478;51.740;-1.314;2023-05-08T12:41:12;100521.55;;;11.12;100.00
36454;BME280;22478;51.740;-1.314;2023-05-08T12:43:40;100513.02;;;12.11;100.00
36454;BME280;22478;51.740;-1.314;2023-05-08T12:46:10;100504.87;;;11.54;100.00
36454;BME280;22478;51.740;-1.314;2023-05-08T12:48:37;100499.19;;;11.31;100.00
36454;BME280;22478;51.740;-1.314;2023-05-08T12:51:04;100504.32;;;11.25;100.00